Evansville, IN (47712)

1:20 AM CDT on August 25, 2016 (GMT -0500)
Pigeon Township | | Change Station

Elev 390 ft 37.99 °N, 87.56 °W | Updated 11 seconds ago

Clear
Clear
79.9 °F
Feels Like 85 °F
N
1.0
Wind Variable Wind from South
Gusts 7.0 mph

Today
High -- | Low -- °F
--% Chance of Precip.
Yesterday
High -- | Low -- °F
Precip. -- in
Pressure 30.06 in
Visibility 10.0 miles
Clouds Clear
Heat Index 85 °F
Dew Point 75 °F
Humidity 86%
Rainfall 0.00 in
Snow Depth Not available.
6:14 AM 7:29 PM
Waning Gibbous, 49% visible
METAR KEVV 250554Z AUTO 21005KT 10SM CLR 26/23 A3007 RMK AO2 SLP178 T02560233 10300 20256 403220211 53002 TSNO
Pressure 30.06 in
Visibility 10.0 miles
Clouds Clear
Heat Index 85 °F
Dew Point 75 °F
Humidity 86%
Rainfall 0.00 in
Snow Depth Not available.
6:14 AM 7:29 PM
Waning Gibbous, 49% visible
METAR KEVV 250554Z AUTO 21005KT 10SM CLR 26/23 A3007 RMK AO2 SLP178 T02560233 10300 20256 403220211 53002 TSNO

10-Day Weather Forecast

Almanac

Astronomy

Aug. 25, 2016 Rise Set
Actual Time
Civil Twilight
Nautical Twilight
Astronomical Twilight
Moon
Length of Visible Light
Length of Day
Tomorrow will be .
, % of the Moon is Illuminated

Today's Extremes

State Highs State Lows

Community

WunderPhotos

Upload Photos

1,934,803 photos uploaded!

WunderBlog® & News

Nearby

Air Quality

  Air Quality AQ Index Pollutant
Not available.

Snow Depth

Station Depth Elevation

Earthquake Activity

City Distance Mag. Time & Date
Minimum magnitude displayed is 2.5.

Coastal Water Temperatures

Place Temperature

Stations

Nearby Weather Stations

Station Location Temp. Windchill Dew Point Humidity Wind Precip. Elev Updated Type
                   

Watches & Warnings

There are currently no watches in effect.